sensor_id;sensor_type;location;lat;lon;timestamp;P1;durP1;ratioP1;P2;durP2;ratioP2
19434;SDS011;9853;50.848;4.108;2023-02-28T00:01:08;13.10;;;4.40;;
19434;SDS011;9853;50.848;4.108;2023-02-28T00:03:24;11.90;;;4.63;;
19434;SDS011;9853;50.848;4.108;2023-02-28T00:06:04;8.57;;;4.40;;
19434;SDS011;9853;50.848;4.108;2023-02-28T00:08:30;8.73;;;4.70;;
19434;SDS011;9853;50.848;4.108;2023-02-28T00:13:40;9.03;;;4.80;;
19434;SDS011;9853;50.848;4.108;2023-02-28T00:18:50;11.97;;;4.77;;
19434;SDS011;9853;50.848;4.108;2023-02-28T00:33:33;9.87;;;4.70;;
19434;SDS011;9853;50.848;4.108;2023-02-28T00:36:20;9.97;;;4.33;;
19434;SDS011;9853;50.848;4.108;2023-02-28T00:56:27;11.27;;;4.97;;
19434;SDS011;9853;50.848;4.108;2023-02-28T01:02:02;10.33;;;5.47;;
19434;SDS011;9853;50.848;4.108;2023-02-28T04:04:10;13.87;;;8.57;;
19434;SDS011;9853;50.848;4.108;2023-02-28T04:06:32;15.87;;;8.00;;
19434;SDS011;9853;50.848;4.108;2023-02-28T04:08:34;14.13;;;8.50;;
19434;SDS011;9853;50.848;4.108;2023-02-28T04:10:49;12.50;;;8.57;;
19434;SDS011;9853;50.848;4.108;2023-02-28T04:13:14;15.60;;;8.27;;
19434;SDS011;9853;50.848;4.108;2023-02-28T04:15:17;14.77;;;8.60;;
19434;SDS011;9853;50.848;4.108;2023-02-28T04:17:43;17.43;;;8.60;;
19434;SDS011;9853;50.848;4.108;2023-02-28T04:20:02;15.33;;;8.27;;
19434;SDS011;9853;50.848;4.108;2023-02-28T04:22:34;19.10;;;8.73;;
19434;SDS011;9853;50.848;4.108;2023-02-28T04:24:59;16.23;;;9.23;;
19434;SDS011;9853;50.848;4.108;2023-02-28T04:46:32;12.10;;;7.63;;
19434;SDS011;9853;50.848;4.108;2023-02-28T04:48:55;14.43;;;8.63;;
19434;SDS011;9853;50.848;4.108;2023-02-28T04:51:02;14.37;;;8.50;;
19434;SDS011;9853;50.848;4.108;2023-02-28T04:53:37;15.93;;;8.93;;
19434;SDS011;9853;50.848;4.108;2023-02-28T04:56:25;20.70;;;8.90;;
19434;SDS011;9853;50.848;4.108;2023-02-28T04:58:26;18.83;;;8.30;;
19434;SDS011;9853;50.848;4.108;2023-02-28T05:00:30;17.37;;;8.70;;
19434;SDS011;9853;50.848;4.108;2023-02-28T05:02:40;16.27;;;9.03;;
19434;SDS011;9853;50.848;4.108;2023-02-28T05:04:52;15.70;;;9.03;;
19434;SDS011;9853;50.848;4.108;2023-02-28T05:06:56;20.00;;;9.07;;
19434;SDS011;9853;50.848;4.108;2023-02-28T05:08:57;14.53;;;8.07;;
19434;SDS011;9853;50.848;4.108;2023-02-28T05:10:58;15.33;;;8.47;;
19434;SDS011;9853;50.848;4.108;2023-02-28T05:13:00;15.93;;;9.10;;
19434;SDS011;9853;50.848;4.108;2023-02-28T05:15:02;12.63;;;7.97;;
19434;SDS011;9853;50.848;4.108;2023-02-28T05:17:04;15.43;;;8.73;;
19434;SDS011;9853;50.848;4.108;2023-02-28T05:19:05;16.00;;;8.97;;
19434;SDS011;9853;50.848;4.108;2023-02-28T05:21:13;17.27;;;8.67;;
19434;SDS011;9853;50.848;4.108;2023-02-28T05:23:24;14.83;;;7.97;;
19434;SDS011;9853;50.848;4.108;2023-02-28T05:25:25;17.67;;;9.03;;
19434;SDS011;9853;50.848;4.108;2023-02-28T05:27:26;19.77;;;8.90;;
19434;SDS011;9853;50.848;4.108;2023-02-28T05:29:28;15.83;;;8.93;;
19434;SDS011;9853;50.848;4.108;2023-02-28T05:31:29;14.53;;;8.83;;
19434;SDS011;9853;50.848;4.108;2023-02-28T05:33:33;16.33;;;8.70;;
19434;SDS011;9853;50.848;4.108;2023-02-28T05:35:33;19.30;;;8.87;;
19434;SDS011;9853;50.848;4.108;2023-02-28T05:37:39;18.17;;;8.80;;
19434;SDS011;9853;50.848;4.108;2023-02-28T05:39:40;16.33;;;9.17;;
19434;SDS011;9853;50.848;4.108;2023-02-28T05:41:41;19.87;;;8.83;;
19434;SDS011;9853;50.848;4.108;2023-02-28T05:43:46;18.03;;;9.27;;
19434;SDS011;9853;50.848;4.108;2023-02-28T05:45:52;15.50;;;9.07;;
19434;SDS011;9853;50.848;4.108;2023-02-28T05:47:53;19.87;;;8.27;;
19434;SDS011;9853;50.848;4.108;2023-02-28T05:49:54;19.17;;;8.47;;
19434;SDS011;9853;50.848;4.108;2023-02-28T05:51:55;16.57;;;8.10;;
19434;SDS011;9853;50.848;4.108;2023-02-28T05:54:01;16.37;;;8.70;;
19434;SDS011;9853;50.848;4.108;2023-02-28T05:56:02;18.67;;;8.90;;
19434;SDS011;9853;50.848;4.108;2023-02-28T05:58:03;16.97;;;8.63;;
19434;SDS011;9853;50.848;4.108;2023-02-28T06:00:04;18.50;;;8.63;;
19434;SDS011;9853;50.848;4.108;2023-02-28T06:02:13;14.70;;;8.53;;
19434;SDS011;9853;50.848;4.108;2023-02-28T06:04:16;16.80;;;8.10;;
19434;SDS011;9853;50.848;4.108;2023-02-28T06:06:23;15.67;;;8.10;;
19434;SDS011;9853;50.848;4.108;2023-02-28T06:08:24;18.83;;;8.23;;
19434;SDS011;9853;50.848;4.108;2023-02-28T06:10:25;20.03;;;8.77;;
19434;SDS011;9853;50.848;4.108;2023-02-28T06:12:26;17.70;;;8.70;;
19434;SDS011;9853;50.848;4.108;2023-02-28T06:14:26;16.57;;;8.73;;
19434;SDS011;9853;50.848;4.108;2023-02-28T06:16:28;17.57;;;8.03;;
19434;SDS011;9853;50.848;4.108;2023-02-28T06:18:30;14.67;;;8.53;;
19434;SDS011;9853;50.848;4.108;2023-02-28T06:20:30;16.60;;;8.20;;
19434;SDS011;9853;50.848;4.108;2023-02-28T06:22:31;17.17;;;8.40;;
19434;SDS011;9853;50.848;4.108;2023-02-28T06:24:32;14.90;;;8.43;;
19434;SDS011;9853;50.848;4.108;2023-02-28T17:03:39;3.87;;;2.27;;
19434;SDS011;9853;50.848;4.108;2023-02-28T17:05:43;4.10;;;2.37;;
